KCLK/CLK METAR and TAF weather

Enter ICAO airport designator
Station Type Date Time Source
KCLK METAR 2018/01/19 23:15 UTC NOAA

KCLK 192315Z AUTO 17016G21KT 10SM CLR 15/M08 A2983 RMK AO2 PNO


Station Type Date Time Source
KCLK Decoded METAR 2018/01/19 23:15 UTC NOAA

Clinton, Clinton Regional Airport, OK, United States (KCLK) 35-32-17N 098-55-17W
Jan 19, 2018 - 06:15 PM EST / 2018.01.19 2315 UTC
Wind: from the S (170 degrees) at 18 MPH (16 KT) gusting to 24 MPH (21 KT):0
Visibility: 10 mile(s):0
Sky conditions: clear
Temperature: 59 F (15 C)
Dew Point: 17 F (-8 C)
Relative Humidity: 19%
Pressure (altimeter): 29.83 in. Hg (1010 hPa)
ob: KCLK 192315Z AUTO 17016G21KT 10SM CLR 15/M08 A2983 RMK AO2 PNO
cycle: 23

Station Type Date Time Source
KCLK TAF UTC NOAA

Error!


Example: see airport list